sensor_id;sensor_type;location;lat;lon;timestamp;P1;durP1;ratioP1;P2;durP2;ratioP2
44774;SDS011;31340;51.402;0.016;2023-03-14T00:00:21;44.13;;;6.97;;
44774;SDS011;31340;51.402;0.016;2023-03-14T00:02:52;53.20;;;7.78;;
44774;SDS011;31340;51.402;0.016;2023-03-14T00:05:20;57.55;;;7.53;;
44774;SDS011;31340;51.402;0.016;2023-03-14T00:07:48;57.28;;;8.13;;
44774;SDS011;31340;51.402;0.016;2023-03-14T00:10:16;55.85;;;7.55;;
44774;SDS011;31340;51.402;0.016;2023-03-14T00:12:44;46.95;;;8.20;;
44774;SDS011;31340;51.402;0.016;2023-03-14T00:15:12;41.78;;;6.80;;
44774;SDS011;31340;51.402;0.016;2023-03-14T00:17:42;53.83;;;7.35;;
44774;SDS011;31340;51.402;0.016;2023-03-14T00:20:11;53.65;;;7.45;;
44774;SDS011;31340;51.402;0.016;2023-03-14T00:22:39;47.47;;;6.07;;
44774;SDS011;31340;51.402;0.016;2023-03-14T00:25:08;44.92;;;6.97;;
44774;SDS011;31340;51.402;0.016;2023-03-14T00:27:37;45.25;;;7.45;;
44774;SDS011;31340;51.402;0.016;2023-03-14T00:30:05;42.17;;;6.55;;
44774;SDS011;31340;51.402;0.016;2023-03-14T00:32:36;42.17;;;5.75;;
44774;SDS011;31340;51.402;0.016;2023-03-14T00:35:03;29.45;;;4.45;;
44774;SDS011;31340;51.402;0.016;2023-03-14T00:37:31;31.50;;;4.25;;
44774;SDS011;31340;51.402;0.016;2023-03-14T00:39:59;22.95;;;3.22;;
44774;SDS011;31340;51.402;0.016;2023-03-14T00:42:27;27.85;;;3.78;;
44774;SDS011;31340;51.402;0.016;2023-03-14T00:44:57;28.93;;;3.00;;
44774;SDS011;31340;51.402;0.016;2023-03-14T00:47:24;16.00;;;2.53;;
44774;SDS011;31340;51.402;0.016;2023-03-14T00:49:52;18.77;;;2.70;;
44774;SDS011;31340;51.402;0.016;2023-03-14T00:52:19;19.40;;;2.20;;
44774;SDS011;31340;51.402;0.016;2023-03-14T00:54:47;14.30;;;2.40;;
44774;SDS011;31340;51.402;0.016;2023-03-14T00:57:14;16.40;;;2.42;;
44774;SDS011;31340;51.402;0.016;2023-03-14T00:59:42;21.15;;;2.40;;
44774;SDS011;31340;51.402;0.016;2023-03-14T01:02:09;14.20;;;2.45;;
44774;SDS011;31340;51.402;0.016;2023-03-14T01:04:37;15.68;;;2.40;;
44774;SDS011;31340;51.402;0.016;2023-03-14T01:07:06;14.20;;;3.50;;
44774;SDS011;31340;51.402;0.016;2023-03-14T01:09:34;15.27;;;2.20;;
44774;SDS011;31340;51.402;0.016;2023-03-14T01:12:02;14.93;;;2.63;;
44774;SDS011;31340;51.402;0.016;2023-03-14T01:14:29;13.05;;;2.15;;
44774;SDS011;31340;51.402;0.016;2023-03-14T01:16:57;13.52;;;2.13;;
44774;SDS011;31340;51.402;0.016;2023-03-14T01:19:27;9.50;;;1.67;;
44774;SDS011;31340;51.402;0.016;2023-03-14T01:21:55;7.72;;;1.65;;
44774;SDS011;31340;51.402;0.016;2023-03-14T01:24:23;7.47;;;1.40;;
44774;SDS011;31340;51.402;0.016;2023-03-14T01:26:51;6.78;;;1.60;;
44774;SDS011;31340;51.402;0.016;2023-03-14T01:29:18;8.40;;;1.80;;
44774;SDS011;31340;51.402;0.016;2023-03-14T01:31:46;5.97;;;1.40;;
44774;SDS011;31340;51.402;0.016;2023-03-14T01:34:14;2.95;;;1.20;;
44774;SDS011;31340;51.402;0.016;2023-03-14T01:36:42;3.10;;;0.90;;
44774;SDS011;31340;51.402;0.016;2023-03-14T01:39:10;3.83;;;1.10;;
44774;SDS011;31340;51.402;0.016;2023-03-14T01:41:37;8.13;;;1.30;;
44774;SDS011;31340;51.402;0.016;2023-03-14T01:44:08;4.75;;;1.17;;
44774;SDS011;31340;51.402;0.016;2023-03-14T01:46:43;1.92;;;0.80;;
44774;SDS011;31340;51.402;0.016;2023-03-14T01:52:10;2.72;;;1.30;;
44774;SDS011;31340;51.402;0.016;2023-03-14T01:54:48;2.13;;;1.20;;
44774;SDS011;31340;51.402;0.016;2023-03-14T01:57:23;1.38;;;1.20;;
44774;SDS011;31340;51.402;0.016;2023-03-14T01:59:59;3.67;;;1.85;;
44774;SDS011;31340;51.402;0.016;2023-03-14T02:02:46;3.47;;;0.98;;
44774;SDS011;31340;51.402;0.016;2023-03-14T02:05:20;1.27;;;0.80;;
44774;SDS011;31340;51.402;0.016;2023-03-14T02:07:58;1.85;;;0.85;;
44774;SDS011;31340;51.402;0.016;2023-03-14T02:10:41;2.65;;;1.00;;
44774;SDS011;31340;51.402;0.016;2023-03-14T02:13:12;2.35;;;1.10;;
44774;SDS011;31340;51.402;0.016;2023-03-14T02:16:01;4.88;;;1.33;;
44774;SDS011;31340;51.402;0.016;2023-03-14T02:18:58;2.10;;;1.00;;
44774;SDS011;31340;51.402;0.016;2023-03-14T02:21:47;1.67;;;1.10;;
44774;SDS011;31340;51.402;0.016;2023-03-14T02:24:47;4.53;;;1.20;;
44774;SDS011;31340;51.402;0.016;2023-03-14T02:27:16;4.90;;;0.98;;
44774;SDS011;31340;51.402;0.016;2023-03-14T02:32:14;4.50;;;1.23;;
44774;SDS011;31340;51.402;0.016;2023-03-14T02:34:44;5.30;;;1.20;;
44774;SDS011;31340;51.402;0.016;2023-03-14T02:37:14;2.45;;;1.25;;
44774;SDS011;31340;51.402;0.016;2023-03-14T02:39:44;4.85;;;1.05;;
44774;SDS011;31340;51.402;0.016;2023-03-14T02:42:14;2.83;;;1.55;;
44774;SDS011;31340;51.402;0.016;2023-03-14T02:44:50;2.42;;;1.35;;
44774;SDS011;31340;51.402;0.016;2023-03-14T02:47:22;8.02;;;1.40;;
44774;SDS011;31340;51.402;0.016;2023-03-14T02:49:57;2.00;;;1.20;;
44774;SDS011;31340;51.402;0.016;2023-03-14T02:52:30;2.60;;;1.27;;
44774;SDS011;31340;51.402;0.016;2023-03-14T02:54:58;3.40;;;1.60;;
44774;SDS011;31340;51.402;0.016;2023-03-14T02:57:27;5.03;;;1.92;;
44774;SDS011;31340;51.402;0.016;2023-03-14T02:59:57;4.97;;;1.23;;
44774;SDS011;31340;51.402;0.016;2023-03-14T03:02:31;3.92;;;1.30;;
44774;SDS011;31340;51.402;0.016;2023-03-14T03:04:59;6.47;;;1.02;;
44774;SDS011;31340;51.402;0.016;2023-03-14T03:07:27;3.13;;;1.00;;
44774;SDS011;31340;51.402;0.016;2023-03-14T03:09:56;4.43;;;1.00;;
44774;SDS011;31340;51.402;0.016;2023-03-14T03:12:23;2.85;;;0.80;;
44774;SDS011;31340;51.402;0.016;2023-03-14T03:14:51;8.50;;;1.15;;
44774;SDS011;31340;51.402;0.016;2023-03-14T03:17:19;1.58;;;0.80;;
44774;SDS011;31340;51.402;0.016;2023-03-14T03:19:47;1.80;;;0.70;;
44774;SDS011;31340;51.402;0.016;2023-03-14T03:22:15;3.13;;;0.80;;
44774;SDS011;31340;51.402;0.016;2023-03-14T03:24:42;5.18;;;0.88;;
44774;SDS011;31340;51.402;0.016;2023-03-14T03:27:11;4.85;;;1.10;;
44774;SDS011;31340;51.402;0.016;2023-03-14T03:29:39;5.18;;;1.10;;
44774;SDS011;31340;51.402;0.016;2023-03-14T03:32:07;3.90;;;1.00;;
44774;SDS011;31340;51.402;0.016;2023-03-14T03:34:34;3.25;;;0.80;;
44774;SDS011;31340;51.402;0.016;2023-03-14T03:37:02;3.08;;;1.00;;
44774;SDS011;31340;51.402;0.016;2023-03-14T03:39:34;5.63;;;0.80;;
44774;SDS011;31340;51.402;0.016;2023-03-14T03:42:02;1.77;;;0.80;;
44774;SDS011;31340;51.402;0.016;2023-03-14T03:44:30;1.88;;;0.63;;
44774;SDS011;31340;51.402;0.016;2023-03-14T03:46:57;5.05;;;1.00;;
44774;SDS011;31340;51.402;0.016;2023-03-14T03:49:30;4.97;;;0.80;;
44774;SDS011;31340;51.402;0.016;2023-03-14T03:52:00;4.63;;;0.95;;
44774;SDS011;31340;51.402;0.016;2023-03-14T03:54:27;5.90;;;1.50;;
44774;SDS011;31340;51.402;0.016;2023-03-14T03:56:56;6.10;;;1.52;;
44774;SDS011;31340;51.402;0.016;2023-03-14T03:59:24;3.42;;;0.88;;
44774;SDS011;31340;51.402;0.016;2023-03-14T04:01:52;3.78;;;1.00;;
44774;SDS011;31340;51.402;0.016;2023-03-14T04:04:19;2.92;;;0.82;;
44774;SDS011;31340;51.402;0.016;2023-03-14T04:06:47;3.67;;;0.90;;
44774;SDS011;31340;51.402;0.016;2023-03-14T04:09:15;2.00;;;0.82;;
44774;SDS011;31340;51.402;0.016;2023-03-14T04:11:57;6.10;;;0.93;;
44774;SDS011;31340;51.402;0.016;2023-03-14T04:14:34;3.97;;;0.80;;
44774;SDS011;31340;51.402;0.016;2023-03-14T04:17:11;4.45;;;0.80;;
44774;SDS011;31340;51.402;0.016;2023-03-14T04:19:38;4.22;;;0.90;;
44774;SDS011;31340;51.402;0.016;2023-03-14T04:22:06;7.03;;;0.90;;
44774;SDS011;31340;51.402;0.016;2023-03-14T04:24:43;6.32;;;0.90;;
44774;SDS011;31340;51.402;0.016;2023-03-14T04:27:11;7.97;;;1.30;;
44774;SDS011;31340;51.402;0.016;2023-03-14T04:29:39;7.13;;;0.90;;
44774;SDS011;31340;51.402;0.016;2023-03-14T04:32:07;4.13;;;0.82;;
44774;SDS011;31340;51.402;0.016;2023-03-14T04:37:06;5.55;;;1.35;;
44774;SDS011;31340;51.402;0.016;2023-03-14T04:39:41;6.95;;;1.10;;
44774;SDS011;31340;51.402;0.016;2023-03-14T04:42:15;3.95;;;1.02;;
44774;SDS011;31340;51.402;0.016;2023-03-14T04:44:43;3.42;;;0.82;;
44774;SDS011;31340;51.402;0.016;2023-03-14T04:47:13;6.60;;;1.10;;
44774;SDS011;31340;51.402;0.016;2023-03-14T04:49:41;2.22;;;0.90;;
44774;SDS011;31340;51.402;0.016;2023-03-14T04:52:12;8.52;;;1.45;;
44774;SDS011;31340;51.402;0.016;2023-03-14T04:54:39;6.68;;;1.30;;
44774;SDS011;31340;51.402;0.016;2023-03-14T04:57:07;10.10;;;1.10;;
44774;SDS011;31340;51.402;0.016;2023-03-14T04:59:36;18.20;;;1.73;;
44774;SDS011;31340;51.402;0.016;2023-03-14T05:02:20;7.82;;;1.40;;
44774;SDS011;31340;51.402;0.016;2023-03-14T05:05:00;5.55;;;1.20;;
44774;SDS011;31340;51.402;0.016;2023-03-14T05:07:46;9.18;;;1.42;;
44774;SDS011;31340;51.402;0.016;2023-03-14T05:10:35;7.85;;;1.30;;
44774;SDS011;31340;51.402;0.016;2023-03-14T05:13:23;9.52;;;1.60;;
44774;SDS011;31340;51.402;0.016;2023-03-14T05:16:01;6.10;;;1.60;;
44774;SDS011;31340;51.402;0.016;2023-03-14T05:19:00;10.35;;;1.40;;
44774;SDS011;31340;51.402;0.016;2023-03-14T05:21:47;9.52;;;1.45;;
44774;SDS011;31340;51.402;0.016;2023-03-14T05:24:29;8.50;;;1.80;;
44774;SDS011;31340;51.402;0.016;2023-03-14T05:27:09;9.63;;;1.85;;
44774;SDS011;31340;51.402;0.016;2023-03-14T05:30:03;11.05;;;2.47;;
44774;SDS011;31340;51.402;0.016;2023-03-14T05:33:01;9.07;;;1.40;;
44774;SDS011;31340;51.402;0.016;2023-03-14T05:36:01;7.90;;;1.63;;
44774;SDS011;31340;51.402;0.016;2023-03-14T05:38:41;7.72;;;1.33;;
44774;SDS011;31340;51.402;0.016;2023-03-14T05:41:44;9.43;;;1.38;;
44774;SDS011;31340;51.402;0.016;2023-03-14T05:44:23;11.48;;;2.50;;
44774;SDS011;31340;51.402;0.016;2023-03-14T05:47:09;9.38;;;1.95;;
44774;SDS011;31340;51.402;0.016;2023-03-14T05:49:55;9.32;;;1.58;;
44774;SDS011;31340;51.402;0.016;2023-03-14T05:52:32;7.45;;;1.60;;
44774;SDS011;31340;51.402;0.016;2023-03-14T05:55:26;9.23;;;1.50;;
44774;SDS011;31340;51.402;0.016;2023-03-14T05:58:23;7.65;;;1.42;;
44774;SDS011;31340;51.402;0.016;2023-03-14T06:01:09;13.43;;;1.45;;
44774;SDS011;31340;51.402;0.016;2023-03-14T06:03:56;7.85;;;1.70;;
44774;SDS011;31340;51.402;0.016;2023-03-14T06:06:24;10.32;;;1.45;;
44774;SDS011;31340;51.402;0.016;2023-03-14T06:08:52;13.60;;;2.00;;
44774;SDS011;31340;51.402;0.016;2023-03-14T06:11:20;8.88;;;1.58;;
44774;SDS011;31340;51.402;0.016;2023-03-14T06:13:47;10.07;;;1.70;;
44774;SDS011;31340;51.402;0.016;2023-03-14T06:16:15;8.95;;;1.50;;
44774;SDS011;31340;51.402;0.016;2023-03-14T06:18:43;14.65;;;1.48;;
44774;SDS011;31340;51.402;0.016;2023-03-14T06:21:14;9.13;;;1.30;;
44774;SDS011;31340;51.402;0.016;2023-03-14T06:23:45;17.90;;;2.45;;
44774;SDS011;31340;51.402;0.016;2023-03-14T06:26:13;12.18;;;1.77;;
44774;SDS011;31340;51.402;0.016;2023-03-14T06:28:41;10.05;;;1.88;;
44774;SDS011;31340;51.402;0.016;2023-03-14T06:31:08;14.93;;;1.98;;
44774;SDS011;31340;51.402;0.016;2023-03-14T06:33:46;10.23;;;1.48;;
44774;SDS011;31340;51.402;0.016;2023-03-14T06:36:14;9.90;;;1.73;;
44774;SDS011;31340;51.402;0.016;2023-03-14T06:38:43;12.85;;;1.88;;
44774;SDS011;31340;51.402;0.016;2023-03-14T06:41:11;7.68;;;1.52;;
44774;SDS011;31340;51.402;0.016;2023-03-14T06:43:41;14.80;;;1.67;;
44774;SDS011;31340;51.402;0.016;2023-03-14T06:46:09;9.77;;;1.60;;
44774;SDS011;31340;51.402;0.016;2023-03-14T06:48:39;10.85;;;2.25;;
44774;SDS011;31340;51.402;0.016;2023-03-14T06:51:07;13.10;;;1.35;;
44774;SDS011;31340;51.402;0.016;2023-03-14T06:53:35;9.65;;;1.67;;
44774;SDS011;31340;51.402;0.016;2023-03-14T06:56:03;11.23;;;1.92;;
44774;SDS011;31340;51.402;0.016;2023-03-14T06:58:33;14.93;;;1.63;;
44774;SDS011;31340;51.402;0.016;2023-03-14T07:01:04;11.55;;;1.48;;
44774;SDS011;31340;51.402;0.016;2023-03-14T07:03:39;9.50;;;1.80;;
44774;SDS011;31340;51.402;0.016;2023-03-14T07:06:07;12.57;;;1.88;;
44774;SDS011;31340;51.402;0.016;2023-03-14T07:08:35;12.40;;;1.50;;
44774;SDS011;31340;51.402;0.016;2023-03-14T07:11:02;8.25;;;1.42;;
44774;SDS011;31340;51.402;0.016;2023-03-14T07:13:30;12.27;;;1.67;;
44774;SDS011;31340;51.402;0.016;2023-03-14T07:16:03;12.35;;;2.15;;
44774;SDS011;31340;51.402;0.016;2023-03-14T07:18:31;10.50;;;2.00;;
44774;SDS011;31340;51.402;0.016;2023-03-14T07:21:03;8.70;;;1.77;;
44774;SDS011;31340;51.402;0.016;2023-03-14T07:23:36;10.45;;;1.90;;
44774;SDS011;31340;51.402;0.016;2023-03-14T07:26:06;10.73;;;1.80;;
44774;SDS011;31340;51.402;0.016;2023-03-14T07:28:36;14.13;;;1.80;;
44774;SDS011;31340;51.402;0.016;2023-03-14T07:31:09;18.05;;;2.25;;
44774;SDS011;31340;51.402;0.016;2023-03-14T07:33:38;8.82;;;1.88;;
44774;SDS011;31340;51.402;0.016;2023-03-14T07:36:06;9.32;;;1.75;;
44774;SDS011;31340;51.402;0.016;2023-03-14T07:38:34;14.23;;;1.83;;
44774;SDS011;31340;51.402;0.016;2023-03-14T07:41:20;11.13;;;1.60;;
44774;SDS011;31340;51.402;0.016;2023-03-14T07:44:08;9.50;;;1.80;;
44774;SDS011;31340;51.402;0.016;2023-03-14T07:46:35;10.25;;;1.80;;
44774;SDS011;31340;51.402;0.016;2023-03-14T07:49:03;9.98;;;1.85;;
44774;SDS011;31340;51.402;0.016;2023-03-14T07:51:30;10.85;;;1.65;;
44774;SDS011;31340;51.402;0.016;2023-03-14T07:53:57;7.90;;;1.75;;
44774;SDS011;31340;51.402;0.016;2023-03-14T07:56:25;7.60;;;1.80;;
44774;SDS011;31340;51.402;0.016;2023-03-14T07:58:53;10.48;;;1.75;;
44774;SDS011;31340;51.402;0.016;2023-03-14T08:01:21;5.47;;;2.10;;
44774;SDS011;31340;51.402;0.016;2023-03-14T08:03:48;9.55;;;1.70;;
44774;SDS011;31340;51.402;0.016;2023-03-14T08:06:16;10.75;;;1.50;;
44774;SDS011;31340;51.402;0.016;2023-03-14T08:08:43;14.75;;;2.00;;
44774;SDS011;31340;51.402;0.016;2023-03-14T08:11:11;8.48;;;2.10;;
44774;SDS011;31340;51.402;0.016;2023-03-14T08:13:39;10.38;;;1.80;;
44774;SDS011;31340;51.402;0.016;2023-03-14T08:16:07;7.28;;;1.90;;
44774;SDS011;31340;51.402;0.016;2023-03-14T08:18:35;12.27;;;1.85;;
44774;SDS011;31340;51.402;0.016;2023-03-14T08:21:03;6.40;;;1.80;;
44774;SDS011;31340;51.402;0.016;2023-03-14T08:23:31;11.60;;;1.98;;
44774;SDS011;31340;51.402;0.016;2023-03-14T08:25:59;4.30;;;0.98;;
44774;SDS011;31340;51.402;0.016;2023-03-14T08:28:26;10.13;;;1.92;;
44774;SDS011;31340;51.402;0.016;2023-03-14T08:31:00;9.63;;;1.88;;
44774;SDS011;31340;51.402;0.016;2023-03-14T08:33:28;7.25;;;1.95;;
44774;SDS011;31340;51.402;0.016;2023-03-14T08:35:57;3.55;;;1.80;;
44774;SDS011;31340;51.402;0.016;2023-03-14T08:38:26;5.00;;;1.50;;
44774;SDS011;31340;51.402;0.016;2023-03-14T08:40:58;5.03;;;1.40;;
44774;SDS011;31340;51.402;0.016;2023-03-14T08:43:28;2.63;;;1.30;;
44774;SDS011;31340;51.402;0.016;2023-03-14T08:45:59;4.63;;;1.52;;
44774;SDS011;31340;51.402;0.016;2023-03-14T08:48:28;7.80;;;1.40;;
44774;SDS011;31340;51.402;0.016;2023-03-14T08:50:57;1.67;;;1.23;;
44774;SDS011;31340;51.402;0.016;2023-03-14T08:53:39;3.78;;;1.33;;
44774;SDS011;31340;51.402;0.016;2023-03-14T08:56:07;2.80;;;1.25;;
44774;SDS011;31340;51.402;0.016;2023-03-14T08:58:37;6.10;;;1.30;;
44774;SDS011;31340;51.402;0.016;2023-03-14T09:01:05;3.00;;;1.20;;
44774;SDS011;31340;51.402;0.016;2023-03-14T09:03:33;3.03;;;1.52;;
44774;SDS011;31340;51.402;0.016;2023-03-14T09:06:04;3.95;;;1.55;;
44774;SDS011;31340;51.402;0.016;2023-03-14T09:08:33;2.90;;;1.20;;
44774;SDS011;31340;51.402;0.016;2023-03-14T09:11:06;2.17;;;0.90;;
44774;SDS011;31340;51.402;0.016;2023-03-14T09:13:35;1.98;;;0.90;;
44774;SDS011;31340;51.402;0.016;2023-03-14T09:16:03;1.55;;;0.88;;
44774;SDS011;31340;51.402;0.016;2023-03-14T09:18:31;1.10;;;0.88;;
44774;SDS011;31340;51.402;0.016;2023-03-14T09:20:59;1.38;;;0.75;;
44774;SDS011;31340;51.402;0.016;2023-03-14T09:23:26;1.17;;;0.88;;
44774;SDS011;31340;51.402;0.016;2023-03-14T09:25:57;0.98;;;0.55;;
44774;SDS011;31340;51.402;0.016;2023-03-14T09:28:26;0.73;;;0.70;;
44774;SDS011;31340;51.402;0.016;2023-03-14T09:30:53;1.67;;;0.90;;
44774;SDS011;31340;51.402;0.016;2023-03-14T09:33:21;2.45;;;1.25;;
44774;SDS011;31340;51.402;0.016;2023-03-14T09:35:49;1.70;;;0.85;;
44774;SDS011;31340;51.402;0.016;2023-03-14T09:38:16;3.17;;;1.35;;
44774;SDS011;31340;51.402;0.016;2023-03-14T09:40:44;2.33;;;1.10;;
44774;SDS011;31340;51.402;0.016;2023-03-14T09:43:13;4.93;;;1.00;;
44774;SDS011;31340;51.402;0.016;2023-03-14T09:45:42;2.77;;;0.90;;
44774;SDS011;31340;51.402;0.016;2023-03-14T09:48:16;3.55;;;1.35;;
44774;SDS011;31340;51.402;0.016;2023-03-14T09:50:48;4.25;;;1.70;;
44774;SDS011;31340;51.402;0.016;2023-03-14T09:53:26;3.25;;;1.52;;
44774;SDS011;31340;51.402;0.016;2023-03-14T09:55:59;3.58;;;1.60;;
44774;SDS011;31340;51.402;0.016;2023-03-14T09:58:29;5.97;;;2.28;;
44774;SDS011;31340;51.402;0.016;2023-03-14T10:00:57;5.50;;;2.25;;
44774;SDS011;31340;51.402;0.016;2023-03-14T10:03:34;4.43;;;1.73;;
44774;SDS011;31340;51.402;0.016;2023-03-14T10:06:02;8.65;;;2.20;;
44774;SDS011;31340;51.402;0.016;2023-03-14T10:08:39;5.22;;;1.80;;
44774;SDS011;31340;51.402;0.016;2023-03-14T10:11:17;6.20;;;2.30;;
44774;SDS011;31340;51.402;0.016;2023-03-14T10:16:37;6.80;;;2.40;;
44774;SDS011;31340;51.402;0.016;2023-03-14T10:19:12;8.95;;;2.55;;
44774;SDS011;31340;51.402;0.016;2023-03-14T10:21:52;8.68;;;2.50;;
44774;SDS011;31340;51.402;0.016;2023-03-14T10:24:21;10.80;;;2.95;;
44774;SDS011;31340;51.402;0.016;2023-03-14T10:26:54;10.23;;;2.80;;
44774;SDS011;31340;51.402;0.016;2023-03-14T10:29:26;13.23;;;3.05;;
44774;SDS011;31340;51.402;0.016;2023-03-14T10:31:58;13.35;;;2.53;;
44774;SDS011;31340;51.402;0.016;2023-03-14T10:34:31;10.43;;;2.90;;
44774;SDS011;31340;51.402;0.016;2023-03-14T10:37:13;11.35;;;3.22;;
44774;SDS011;31340;51.402;0.016;2023-03-14T10:39:53;9.02;;;2.78;;
44774;SDS011;31340;51.402;0.016;2023-03-14T10:42:25;12.38;;;3.10;;
44774;SDS011;31340;51.402;0.016;2023-03-14T10:44:59;7.38;;;2.50;;
44774;SDS011;31340;51.402;0.016;2023-03-14T10:47:29;13.43;;;2.15;;
44774;SDS011;31340;51.402;0.016;2023-03-14T10:49:57;13.45;;;2.35;;
44774;SDS011;31340;51.402;0.016;2023-03-14T10:52:46;10.15;;;2.28;;
44774;SDS011;31340;51.402;0.016;2023-03-14T10:55:29;13.50;;;2.67;;
44774;SDS011;31340;51.402;0.016;2023-03-14T11:09:58;9.82;;;1.92;;
44774;SDS011;31340;51.402;0.016;2023-03-14T11:15:24;6.78;;;1.50;;
44774;SDS011;31340;51.402;0.016;2023-03-14T11:21:02;10.75;;;1.80;;
44774;SDS011;31340;51.402;0.016;2023-03-14T11:31:45;10.02;;;2.28;;
44774;SDS011;31340;51.402;0.016;2023-03-14T11:34:16;11.93;;;1.98;;
44774;SDS011;31340;51.402;0.016;2023-03-14T11:36:51;13.13;;;2.35;;
44774;SDS011;31340;51.402;0.016;2023-03-14T11:39:41;10.00;;;1.85;;
44774;SDS011;31340;51.402;0.016;2023-03-14T11:42:16;9.18;;;1.80;;
44774;SDS011;31340;51.402;0.016;2023-03-14T11:44:46;12.73;;;2.42;;
44774;SDS011;31340;51.402;0.016;2023-03-14T11:49:59;10.55;;;2.20;;
44774;SDS011;31340;51.402;0.016;2023-03-14T11:52:50;7.65;;;2.10;;
44774;SDS011;31340;51.402;0.016;2023-03-14T11:55:42;16.50;;;3.20;;
44774;SDS011;31340;51.402;0.016;2023-03-14T11:58:20;13.75;;;3.03;;
44774;SDS011;31340;51.402;0.016;2023-03-14T12:00:56;14.40;;;3.72;;
44774;SDS011;31340;51.402;0.016;2023-03-14T12:08:55;16.13;;;2.75;;
44774;SDS011;31340;51.402;0.016;2023-03-14T12:16:56;11.07;;;2.03;;
44774;SDS011;31340;51.402;0.016;2023-03-14T12:19:44;12.45;;;2.17;;
44774;SDS011;31340;51.402;0.016;2023-03-14T12:22:18;9.00;;;2.17;;
44774;SDS011;31340;51.402;0.016;2023-03-14T12:25:36;12.77;;;2.40;;
44774;SDS011;31340;51.402;0.016;2023-03-14T12:43:43;13.90;;;2.47;;
44774;SDS011;31340;51.402;0.016;2023-03-14T12:46:20;10.52;;;2.03;;
44774;SDS011;31340;51.402;0.016;2023-03-14T12:48:53;12.88;;;2.47;;
44774;SDS011;31340;51.402;0.016;2023-03-14T12:51:35;8.27;;;2.15;;
44774;SDS011;31340;51.402;0.016;2023-03-14T12:59:57;9.85;;;2.10;;
44774;SDS011;31340;51.402;0.016;2023-03-14T13:05:14;7.07;;;1.90;;
44774;SDS011;31340;51.402;0.016;2023-03-14T13:12:50;10.32;;;2.33;;
44774;SDS011;31340;51.402;0.016;2023-03-14T13:15:41;8.95;;;1.70;;
44774;SDS011;31340;51.402;0.016;2023-03-14T13:21:34;7.03;;;1.95;;
44774;SDS011;31340;51.402;0.016;2023-03-14T13:27:02;6.90;;;1.60;;
44774;SDS011;31340;51.402;0.016;2023-03-14T13:29:30;7.55;;;3.40;;
44774;SDS011;31340;51.402;0.016;2023-03-14T13:32:00;10.98;;;2.05;;
44774;SDS011;31340;51.402;0.016;2023-03-14T13:34:29;5.03;;;1.70;;
44774;SDS011;31340;51.402;0.016;2023-03-14T13:36:59;8.20;;;2.85;;
44774;SDS011;31340;51.402;0.016;2023-03-14T13:39:28;8.85;;;1.65;;
44774;SDS011;31340;51.402;0.016;2023-03-14T13:41:59;7.13;;;1.80;;
44774;SDS011;31340;51.402;0.016;2023-03-14T13:44:32;5.95;;;1.85;;
44774;SDS011;31340;51.402;0.016;2023-03-14T13:47:03;8.40;;;1.92;;
44774;SDS011;31340;51.402;0.016;2023-03-14T13:49:33;3.75;;;1.77;;
44774;SDS011;31340;51.402;0.016;2023-03-14T13:52:04;5.32;;;1.40;;
44774;SDS011;31340;51.402;0.016;2023-03-14T13:54:55;6.00;;;1.63;;
44774;SDS011;31340;51.402;0.016;2023-03-14T13:57:24;8.70;;;1.98;;
44774;SDS011;31340;51.402;0.016;2023-03-14T13:59:59;10.27;;;2.15;;
44774;SDS011;31340;51.402;0.016;2023-03-14T14:02:44;7.35;;;1.77;;
44774;SDS011;31340;51.402;0.016;2023-03-14T14:05:12;6.95;;;1.70;;
44774;SDS011;31340;51.402;0.016;2023-03-14T14:07:42;8.80;;;2.25;;
44774;SDS011;31340;51.402;0.016;2023-03-14T14:10:11;7.72;;;1.90;;
44774;SDS011;31340;51.402;0.016;2023-03-14T14:15:11;7.03;;;1.70;;
44774;SDS011;31340;51.402;0.016;2023-03-14T14:17:48;6.45;;;1.60;;
44774;SDS011;31340;51.402;0.016;2023-03-14T14:23:07;6.85;;;1.90;;
44774;SDS011;31340;51.402;0.016;2023-03-14T14:25:39;5.80;;;1.70;;
44774;SDS011;31340;51.402;0.016;2023-03-14T14:33:58;8.20;;;1.73;;
44774;SDS011;31340;51.402;0.016;2023-03-14T14:36:37;4.43;;;1.85;;
44774;SDS011;31340;51.402;0.016;2023-03-14T14:39:15;6.65;;;1.42;;
44774;SDS011;31340;51.402;0.016;2023-03-14T14:41:43;6.55;;;1.50;;
44774;SDS011;31340;51.402;0.016;2023-03-14T14:44:11;5.20;;;1.52;;
44774;SDS011;31340;51.402;0.016;2023-03-14T14:46:43;6.72;;;1.58;;
44774;SDS011;31340;51.402;0.016;2023-03-14T14:49:12;3.63;;;1.27;;
44774;SDS011;31340;51.402;0.016;2023-03-14T14:51:43;6.72;;;1.50;;
44774;SDS011;31340;51.402;0.016;2023-03-14T14:54:16;5.95;;;1.40;;
44774;SDS011;31340;51.402;0.016;2023-03-14T14:57:01;4.05;;;1.30;;
44774;SDS011;31340;51.402;0.016;2023-03-14T14:59:30;6.95;;;1.30;;
44774;SDS011;31340;51.402;0.016;2023-03-14T15:02:01;5.38;;;1.77;;
44774;SDS011;31340;51.402;0.016;2023-03-14T15:04:29;6.75;;;1.50;;
44774;SDS011;31340;51.402;0.016;2023-03-14T15:06:58;5.18;;;1.70;;
44774;SDS011;31340;51.402;0.016;2023-03-14T15:09:25;6.68;;;1.63;;
44774;SDS011;31340;51.402;0.016;2023-03-14T15:11:53;8.18;;;1.80;;
44774;SDS011;31340;51.402;0.016;2023-03-14T15:14:21;3.95;;;1.25;;
44774;SDS011;31340;51.402;0.016;2023-03-14T15:16:48;7.00;;;2.08;;
44774;SDS011;31340;51.402;0.016;2023-03-14T15:19:19;6.95;;;1.75;;
44774;SDS011;31340;51.402;0.016;2023-03-14T15:21:52;4.72;;;1.48;;
44774;SDS011;31340;51.402;0.016;2023-03-14T15:24:21;5.93;;;1.65;;
44774;SDS011;31340;51.402;0.016;2023-03-14T15:26:49;6.10;;;1.80;;
44774;SDS011;31340;51.402;0.016;2023-03-14T15:29:18;5.43;;;1.27;;
44774;SDS011;31340;51.402;0.016;2023-03-14T15:31:45;5.20;;;1.60;;
44774;SDS011;31340;51.402;0.016;2023-03-14T15:34:13;5.30;;;1.35;;
44774;SDS011;31340;51.402;0.016;2023-03-14T15:36:42;3.55;;;1.55;;
44774;SDS011;31340;51.402;0.016;2023-03-14T15:39:09;3.88;;;1.40;;
44774;SDS011;31340;51.402;0.016;2023-03-14T15:41:38;4.40;;;1.50;;
44774;SDS011;31340;51.402;0.016;2023-03-14T15:44:05;4.90;;;1.40;;
44774;SDS011;31340;51.402;0.016;2023-03-14T15:46:33;4.47;;;1.30;;
44774;SDS011;31340;51.402;0.016;2023-03-14T15:49:01;4.25;;;1.60;;
44774;SDS011;31340;51.402;0.016;2023-03-14T15:51:29;3.53;;;1.50;;
44774;SDS011;31340;51.402;0.016;2023-03-14T15:53:56;8.63;;;1.50;;
44774;SDS011;31340;51.402;0.016;2023-03-14T15:56:24;5.05;;;1.63;;
44774;SDS011;31340;51.402;0.016;2023-03-14T15:58:53;6.53;;;1.77;;
44774;SDS011;31340;51.402;0.016;2023-03-14T16:01:21;3.10;;;1.48;;
44774;SDS011;31340;51.402;0.016;2023-03-14T16:03:48;5.60;;;1.70;;
44774;SDS011;31340;51.402;0.016;2023-03-14T16:06:18;6.70;;;1.58;;
44774;SDS011;31340;51.402;0.016;2023-03-14T16:08:46;4.30;;;1.75;;
44774;SDS011;31340;51.402;0.016;2023-03-14T16:11:14;3.65;;;2.28;;
44774;SDS011;31340;51.402;0.016;2023-03-14T16:13:46;4.97;;;1.42;;
44774;SDS011;31340;51.402;0.016;2023-03-14T16:16:14;6.38;;;1.98;;
44774;SDS011;31340;51.402;0.016;2023-03-14T16:18:42;3.92;;;1.23;;
44774;SDS011;31340;51.402;0.016;2023-03-14T16:21:16;6.53;;;1.95;;
44774;SDS011;31340;51.402;0.016;2023-03-14T16:23:45;5.38;;;1.75;;
44774;SDS011;31340;51.402;0.016;2023-03-14T16:26:14;6.18;;;1.70;;
44774;SDS011;31340;51.402;0.016;2023-03-14T16:31:13;7.55;;;1.52;;
44774;SDS011;31340;51.402;0.016;2023-03-14T16:33:43;4.75;;;1.33;;
44774;SDS011;31340;51.402;0.016;2023-03-14T16:36:11;6.22;;;1.30;;
44774;SDS011;31340;51.402;0.016;2023-03-14T16:38:41;3.25;;;1.42;;
44774;SDS011;31340;51.402;0.016;2023-03-14T16:41:14;6.13;;;1.60;;
44774;SDS011;31340;51.402;0.016;2023-03-14T16:43:43;4.75;;;1.30;;
44774;SDS011;31340;51.402;0.016;2023-03-14T16:46:11;4.30;;;1.35;;
44774;SDS011;31340;51.402;0.016;2023-03-14T16:48:43;3.58;;;1.25;;
44774;SDS011;31340;51.402;0.016;2023-03-14T16:51:12;5.28;;;1.42;;